Time;durP1;ratioP1;P1;durP2;ratioP2;P2;SDS_P1;SDS_P2;PMS_P1;PMS_P2;Temp;Humidity;BMP_temperature;BMP_pressure;BME280_temperature;BME280_humidity;BME280_pressure;Samples;Min_cycle;Max_cycle;Signal;HPM_P1;HPM_P2
2022/10/15 00:01:13;;;;;;;29.48;16.75;;;15.60;99.90;;;;;;5029475;28;20022;-74
2022/10/15 00:03:41;;;;;;;31.75;17.45;;;15.60;99.90;;;;;;5030197;28;20088;-74
2022/10/15 00:06:10;;;;;;;31.02;18.65;;;15.60;99.90;;;;;;5031332;28;20029;-75
2022/10/15 00:08:36;;;;;;;35.03;21.90;;;15.60;99.90;;;;;;5029795;28;20030;-74
2022/10/15 00:11:11;;;;;;;24.20;15.70;;;15.70;99.90;;;;;;5030772;28;20056;-74
2022/10/15 00:13:38;;;;;;;36.33;22.20;;;15.70;99.90;;;;;;5036560;28;20128;-74
2022/10/15 00:16:11;;;;;;;44.17;26.13;;;15.70;99.90;;;;;;5028852;28;20553;-74
2022/10/15 00:18:36;;;;;;;36.58;23.75;;;15.70;99.90;;;;;;5028487;28;20033;-75
2022/10/15 00:21:06;;;;;;;45.67;27.35;;;15.60;99.90;;;;;;5037331;28;20029;-74
2022/10/15 00:23:32;;;;;;;40.35;25.83;;;15.70;99.90;;;;;;5032204;28;20439;-74
2022/10/15 00:26:06;;;;;;;43.95;25.13;;;15.70;99.90;;;;;;5028393;28;20029;-74
2022/10/15 00:28:31;;;;;;;49.35;28.00;;;15.60;99.90;;;;;;5029835;28;20056;-74
2022/10/15 00:31:06;;;;;;;47.10;27.45;;;15.70;99.90;;;;;;5028689;28;20479;-74
2022/10/15 00:33:33;;;;;;;49.67;28.63;;;15.60;99.90;;;;;;5026208;28;20036;-74
2022/10/15 00:36:16;;;;;;;52.80;28.25;;;15.60;99.90;;;;;;5032583;28;20025;-75
2022/10/15 00:38:42;;;;;;;42.30;24.70;;;15.70;99.90;;;;;;5028894;28;20029;-74
2022/10/15 00:41:18;;;;;;;35.95;22.13;;;15.60;99.90;;;;;;5028306;28;20379;-74
2022/10/15 00:44:15;;;;;;;41.70;24.67;;;15.60;99.90;;;;;;5027288;28;20475;-74
2022/10/15 00:46:41;;;;;;;48.78;25.67;;;15.40;99.90;;;;;;5010138;28;20088;-74
2022/10/15 00:49:13;;;;;;;44.15;25.23;;;15.50;99.90;;;;;;5028079;28;20072;-75
2022/10/15 00:51:44;;;;;;;37.78;23.25;;;15.40;99.90;;;;;;5031860;28;20033;-75
2022/10/15 00:54:11;;;;;;;37.22;22.50;;;15.40;99.90;;;;;;5034807;28;20071;-74
2022/10/15 00:56:40;;;;;;;42.38;23.17;;;15.40;99.90;;;;;;5027830;28;20471;-74
2022/10/15 00:59:07;;;;;;;34.80;20.75;;;15.30;99.90;;;;;;5027576;28;20029;-74
2022/10/15 01:01:32;;;;;;;37.38;21.05;;;15.30;99.90;;;;;;5028382;28;20148;-74
2022/10/15 01:04:00;;;;;;;46.75;23.98;;;15.30;99.90;;;;;;5028225;28;20454;-74
2022/10/15 01:06:26;;;;;;;44.08;24.25;;;15.40;99.90;;;;;;5027473;28;20037;-74
2022/10/15 01:08:51;;;;;;;35.17;20.60;;;15.60;99.90;;;;;;5028656;28;20043;-74
2022/10/15 01:11:35;;;;;;;30.35;17.98;;;15.50;99.90;;;;;;5028272;28;20036;-74
2022/10/15 01:14:21;;;;;;;28.30;15.55;;;15.60;99.90;;;;;;5039615;28;20414;-74
2022/10/15 01:16:59;;;;;;;28.80;16.55;;;15.60;99.90;;;;;;5031309;28;20033;-75
2022/10/15 01:19:43;;;;;;;33.80;19.27;;;15.50;99.90;;;;;;5031163;28;20029;-74
2022/10/15 01:22:48;;;;;;;40.25;23.35;;;15.40;99.90;;;;;;5035155;28;20107;-74
2022/10/15 01:25:26;;;;;;;45.45;26.25;;;15.40;99.90;;;;;;5028130;28;20391;-75
2022/10/15 01:28:03;;;;;;;36.20;20.52;;;15.30;99.90;;;;;;5027888;28;20026;-75
2022/10/15 01:30:35;;;;;;;48.17;24.85;;;15.30;99.90;;;;;;5037381;28;20083;-74
2022/10/15 01:33:09;;;;;;;32.35;19.85;;;15.30;99.90;;;;;;5027284;28;20044;-76
2022/10/15 01:36:01;;;;;;;30.67;16.75;;;15.40;99.90;;;;;;5027715;28;20033;-75
2022/10/15 01:38:45;;;;;;;27.45;14.20;;;15.40;99.90;;;;;;5027119;28;20116;-75
2022/10/15 01:41:11;;;;;;;24.23;14.80;;;15.50;99.90;;;;;;5027670;28;20033;-75
2022/10/15 01:43:49;;;;;;;27.02;16.05;;;15.50;99.90;;;;;;5027333;28;20095;-75
2022/10/15 01:46:23;;;;;;;27.23;16.33;;;15.60;99.90;;;;;;5037544;28;20438;-75
2022/10/15 01:48:53;;;;;;;25.73;15.77;;;15.70;99.90;;;;;;5033323;28;20648;-75
2022/10/15 01:51:21;;;;;;;27.75;16.10;;;15.70;99.90;;;;;;5033737;28;20496;-75
2022/10/15 01:53:49;;;;;;;36.15;20.65;;;15.60;99.90;;;;;;5030244;28;20104;-75
2022/10/15 01:56:20;;;;;;;26.80;16.35;;;15.60;99.90;;;;;;5034288;28;20025;-75
2022/10/15 01:58:49;;;;;;;25.08;13.38;;;15.40;99.90;;;;;;5036632;28;20033;-75
2022/10/15 02:01:15;;;;;;;25.38;13.02;;;15.40;99.90;;;;;;5031693;28;20538;-75
2022/10/15 02:03:50;;;;;;;23.00;12.63;;;15.40;99.90;;;;;;5035838;28;20038;-75
2022/10/15 02:06:18;;;;;;;;;;;15.40;99.90;;;;;;5035050;28;20041;-75
2022/10/15 02:09:00;;;;;;;35.63;21.00;;;15.40;99.90;;;;;;5032522;28;19956;-75
2022/10/15 02:11:26;;;;;;;45.58;25.27;;;15.40;99.90;;;;;;5037752;28;20049;-75
2022/10/15 02:14:06;;;;;;;46.13;26.10;;;15.30;99.90;;;;;;5032330;28;20085;-75
2022/10/15 02:16:38;;;;;;;42.58;25.88;;;15.20;99.90;;;;;;5034654;28;20056;-75
2022/10/15 02:19:20;;;;;;;40.40;22.85;;;15.20;99.90;;;;;;5031129;28;20026;-75
2022/10/15 02:22:07;;;;;;;31.15;18.33;;;15.20;99.90;;;;;;5033712;28;20031;-75
2022/10/15 02:24:40;;;;;;;25.90;14.30;;;15.20;99.90;;;;;;5031467;28;20059;-75
2022/10/15 02:27:07;;;;;;;32.17;15.18;;;15.20;99.90;;;;;;5034486;28;20021;-75
2022/10/15 02:29:34;;;;;;;39.72;20.75;;;15.10;99.90;;;;;;5030975;28;20037;-75
2022/10/15 02:32:04;;;;;;;22.65;12.98;;;15.20;99.90;;;;;;5030553;28;20026;-75
2022/10/15 02:34:32;;;;;;;24.15;12.20;;;15.10;99.90;;;;;;5032684;28;20021;-75
2022/10/15 02:37:00;;;;;;;23.08;12.10;;;15.20;99.90;;;;;;5030972;28;20097;-75
2022/10/15 02:39:26;;;;;;;20.92;12.15;;;15.20;99.90;;;;;;5030642;28;20033;-75
2022/10/15 02:41:53;;;;;;;20.15;11.98;;;15.20;99.90;;;;;;5031754;28;20029;-75
2022/10/15 02:44:19;;;;;;;43.92;23.58;;;15.30;99.90;;;;;;5031277;28;20037;-75
2022/10/15 02:46:45;;;;;;;41.15;25.77;;;15.20;99.90;;;;;;5028619;28;20088;-75
2022/10/15 02:49:10;;;;;;;49.70;27.60;;;15.20;99.90;;;;;;5032034;28;20029;-75
2022/10/15 02:51:37;;;;;;;45.22;26.45;;;15.10;99.90;;;;;;5031353;28;20025;-75
2022/10/15 02:54:04;;;;;;;52.60;27.38;;;15.10;99.90;;;;;;5033047;28;20049;-75
2022/10/15 02:56:30;;;;;;;38.58;19.52;;;15.10;99.90;;;;;;5029881;28;20022;-75
2022/10/15 02:58:56;;;;;;;37.13;20.98;;;15.10;99.90;;;;;;5029687;28;20033;-75
2022/10/15 03:01:21;;;;;;;41.38;25.00;;;15.10;99.90;;;;;;5030321;28;20030;-73
2022/10/15 03:03:47;;;;;;;41.70;25.13;;;15.10;99.90;;;;;;5031473;28;20032;-73
2022/10/15 03:06:13;;;;;;;40.28;21.77;;;15.00;99.90;;;;;;5032784;28;20029;-73
2022/10/15 03:08:38;;;;;;;24.77;14.45;;;15.00;99.90;;;;;;5026149;28;20709;-73
2022/10/15 03:11:04;;;;;;;29.90;16.35;;;15.00;99.90;;;;;;5031419;28;20029;-74
2022/10/15 03:13:30;;;;;;;37.47;22.95;;;15.10;99.90;;;;;;5030907;28;20042;-73
2022/10/15 03:15:56;;;;;;;35.22;21.95;;;15.10;99.90;;;;;;5026683;28;20033;-73
2022/10/15 03:18:22;;;;;;;44.03;23.58;;;15.00;99.90;;;;;;5024970;28;20120;-73
2022/10/15 03:20:54;;;;;;;42.10;25.13;;;15.10;99.90;;;;;;5029356;28;20472;-73
2022/10/15 03:23:20;;;;;;;40.42;24.23;;;15.10;99.90;;;;;;5025763;28;20032;-73
2022/10/15 03:25:46;;;;;;;40.92;22.98;;;15.10;99.90;;;;;;5024489;28;20034;-73
2022/10/15 03:28:11;;;;;;;39.33;23.10;;;15.10;99.90;;;;;;5025076;28;20057;-73
2022/10/15 03:30:37;;;;;;;37.50;23.60;;;15.00;99.90;;;;;;5025733;28;20550;-73
2022/10/15 03:33:02;;;;;;;25.55;15.73;;;15.00;99.90;;;;;;5025418;28;20037;-73
2022/10/15 03:35:28;;;;;;;24.75;12.93;;;15.10;99.90;;;;;;5031544;28;20010;-73
2022/10/15 03:37:54;;;;;;;21.55;13.60;;;15.10;99.90;;;;;;5027122;28;20033;-73
2022/10/15 03:40:19;;;;;;;20.20;11.98;;;15.10;99.90;;;;;;5026213;28;20036;-73
2022/10/15 03:42:50;;;;;;;18.92;10.85;;;15.10;99.90;;;;;;5026725;28;20129;-73
2022/10/15 03:45:17;;;;;;;20.73;12.48;;;15.20;99.90;;;;;;5029577;28;20041;-74
2022/10/15 03:47:42;;;;;;;21.25;11.90;;;15.20;99.90;;;;;;5026505;28;20027;-73
2022/10/15 03:50:08;;;;;;;27.17;15.95;;;15.20;99.90;;;;;;5024845;28;20026;-73
2022/10/15 03:52:35;;;;;;;26.77;15.35;;;15.20;99.90;;;;;;5025166;28;20037;-74
2022/10/15 03:55:01;;;;;;;19.75;11.80;;;15.10;99.90;;;;;;5025701;28;20037;-73
2022/10/15 03:57:27;;;;;;;23.33;14.18;;;15.10;99.90;;;;;;5027050;28;20091;-73
2022/10/15 03:59:52;;;;;;;24.60;14.75;;;15.10;99.90;;;;;;5025718;28;20040;-74
2022/10/15 04:02:18;;;;;;;42.78;24.30;;;15.10;99.90;;;;;;5026695;28;20040;-73
2022/10/15 04:04:44;;;;;;;43.13;24.70;;;15.10;99.90;;;;;;5024617;28;20034;-73
2022/10/15 04:07:09;;;;;;;37.25;21.55;;;14.90;99.90;;;;;;5029227;28;20037;-73
2022/10/15 04:09:35;;;;;;;46.60;24.88;;;14.80;99.90;;;;;;5029723;28;20025;-72
2022/10/15 04:12:01;;;;;;;40.20;24.33;;;14.80;99.90;;;;;;5026478;28;20036;-73
2022/10/15 04:14:26;;;;;;;41.85;23.35;;;14.80;99.90;;;;;;5024988;28;20037;-73
2022/10/15 04:16:52;;;;;;;43.03;23.30;;;14.70;99.90;;;;;;5024154;28;20032;-73
2022/10/15 04:19:18;;;;;;;44.00;27.25;;;14.70;99.90;;;;;;5025489;28;20045;-73
2022/10/15 04:21:43;;;;;;;42.88;25.00;;;14.70;99.90;;;;;;5026178;28;20045;-73
2022/10/15 04:24:09;;;;;;;46.65;25.60;;;14.80;99.90;;;;;;5024350;28;20104;-73
2022/10/15 04:26:35;;;;;;;38.15;23.40;;;14.80;99.90;;;;;;5025146;28;20052;-72
2022/10/15 04:29:00;;;;;;;35.30;22.27;;;14.90;99.90;;;;;;5026203;28;20030;-73
2022/10/15 04:31:26;;;;;;;35.38;21.55;;;14.80;99.90;;;;;;5024855;28;20063;-73
2022/10/15 04:33:52;;;;;;;36.85;21.63;;;14.70;99.90;;;;;;5027321;28;20075;-73
2022/10/15 04:36:17;;;;;;;36.35;22.35;;;14.70;99.90;;;;;;5032456;28;20057;-72
2022/10/15 04:38:43;;;;;;;46.17;21.55;;;14.70;99.90;;;;;;5024107;28;20029;-71
2022/10/15 04:41:10;;;;;;;33.80;20.20;;;14.70;99.90;;;;;;5025364;28;20083;-72
2022/10/15 04:43:37;;;;;;;30.70;19.27;;;14.70;99.90;;;;;;5024623;28;20033;-72
2022/10/15 04:46:05;;;;;;;34.85;18.83;;;14.70;99.90;;;;;;5024080;28;20041;-71
2022/10/15 04:48:33;;;;;;;24.60;13.70;;;14.70;99.90;;;;;;5024162;28;20029;-72
2022/10/15 04:51:17;;;;;;;19.23;10.45;;;14.70;99.90;;;;;;5025249;28;20027;-72
2022/10/15 04:53:43;;;;;;;18.85;11.40;;;14.80;99.90;;;;;;5024301;28;20052;-72
2022/10/15 04:56:17;;;;;;;18.83;11.43;;;14.80;99.90;;;;;;5023938;28;20037;-71
2022/10/15 04:58:44;;;;;;;19.63;10.13;;;14.80;99.90;;;;;;5026401;28;20031;-72
2022/10/15 05:01:12;;;;;;;20.40;11.55;;;14.80;99.90;;;;;;5027555;28;20037;-72
2022/10/15 05:03:39;;;;;;;23.27;13.05;;;14.80;99.90;;;;;;5026447;28;20116;-72
2022/10/15 05:06:10;;;;;;;25.63;15.23;;;14.80;99.90;;;;;;5023585;28;20037;-72
2022/10/15 05:08:37;;;;;;;25.15;15.70;;;14.80;99.90;;;;;;5023567;28;20033;-72
2022/10/15 05:11:07;;;;;;;34.10;20.55;;;14.80;99.90;;;;;;5030625;28;20061;-72
2022/10/15 05:13:34;;;;;;;25.95;15.70;;;14.70;99.90;;;;;;5023084;28;20472;-72
2022/10/15 05:16:14;;;;;;;24.23;12.45;;;14.70;99.90;;;;;;5023980;28;20057;-71
2022/10/15 05:18:40;;;;;;;20.48;11.15;;;14.70;99.90;;;;;;5027362;28;20507;-72
2022/10/15 05:21:07;;;;;;;18.65;10.80;;;14.80;99.90;;;;;;5023335;28;20032;-72
2022/10/15 05:23:33;;;;;;;20.00;11.52;;;14.80;99.90;;;;;;5025312;28;20035;-72
2022/10/15 05:26:04;;;;;;;28.38;17.52;;;14.80;99.90;;;;;;5023829;28;20128;-72
2022/10/15 05:28:30;;;;;;;32.53;18.77;;;14.90;99.90;;;;;;5021694;28;20630;-72
2022/10/15 05:31:02;;;;;;;21.20;12.90;;;14.90;99.90;;;;;;5023485;28;20072;-72
2022/10/15 05:33:27;;;;;;;20.00;11.80;;;14.90;99.90;;;;;;5027117;28;20107;-72
2022/10/15 05:35:53;;;;;;;22.10;11.90;;;14.90;99.90;;;;;;5025392;28;20665;-72
2022/10/15 05:38:18;;;;;;;27.95;14.15;;;14.90;99.90;;;;;;5030784;28;20037;-72
2022/10/15 05:40:48;;;;;;;29.90;16.35;;;14.90;99.90;;;;;;5025932;28;20044;-73
2022/10/15 05:43:13;;;;;;;31.95;18.63;;;14.90;99.90;;;;;;5028302;28;20029;-72
2022/10/15 05:45:39;;;;;;;30.00;17.48;;;14.90;99.90;;;;;;5019117;28;20483;-72
2022/10/15 05:48:05;;;;;;;33.92;20.58;;;15.00;99.90;;;;;;5019289;28;20495;-72
2022/10/15 05:50:31;;;;;;;30.08;18.77;;;14.90;99.90;;;;;;5020676;28;20026;-72
2022/10/15 05:52:57;;;;;;;29.00;17.70;;;15.00;99.90;;;;;;5021091;28;20033;-71
2022/10/15 05:55:22;;;;;;;25.80;14.38;;;14.90;99.90;;;;;;5024306;28;20056;-74
2022/10/15 05:57:48;;;;;;;20.77;13.05;;;14.90;99.90;;;;;;5023463;28;20041;-73
2022/10/15 06:00:14;;;;;;;21.20;13.18;;;14.90;99.90;;;;;;5021779;28;20550;-74
2022/10/15 06:02:40;;;;;;;23.35;13.30;;;14.90;99.90;;;;;;5025075;28;20041;-74
2022/10/15 06:05:06;;;;;;;17.92;11.18;;;15.00;99.90;;;;;;5021209;28;20033;-73
2022/10/15 06:07:31;;;;;;;27.55;18.02;;;15.00;99.90;;;;;;5021452;28;20040;-73
2022/10/15 06:09:57;;;;;;;26.95;16.33;;;15.00;99.90;;;;;;5027679;28;20076;-74
2022/10/15 06:12:22;;;;;;;25.75;15.38;;;15.00;99.90;;;;;;5023697;28;20029;-73
2022/10/15 06:14:48;;;;;;;19.23;11.15;;;15.00;99.90;;;;;;5020095;28;20798;-73
2022/10/15 06:17:14;;;;;;;17.85;11.38;;;15.00;99.90;;;;;;5022927;28;20033;-74
2022/10/15 06:19:39;;;;;;;17.88;10.20;;;15.10;99.90;;;;;;5021488;28;20025;-74
2022/10/15 06:22:05;;;;;;;20.38;11.30;;;15.10;99.90;;;;;;5021487;28;20052;-73
2022/10/15 06:24:31;;;;;;;18.50;10.77;;;15.10;99.90;;;;;;5030470;28;20295;-73
2022/10/15 06:26:58;;;;;;;20.05;10.77;;;15.10;99.90;;;;;;5027243;28;20084;-76
2022/10/15 06:29:24;;;;;;;21.63;11.65;;;15.20;99.90;;;;;;5023882;28;20091;-79
2022/10/15 06:31:50;;;;;;;30.00;17.83;;;15.20;99.90;;;;;;5028527;28;20068;-78
2022/10/15 06:34:16;;;;;;;34.45;21.17;;;15.10;99.90;;;;;;5025997;28;20033;-76
2022/10/15 06:36:41;;;;;;;37.58;21.33;;;15.00;99.90;;;;;;5022515;28;20072;-77
2022/10/15 06:39:07;;;;;;;34.88;20.33;;;15.00;99.90;;;;;;5023361;28;20543;-76
2022/10/15 06:41:32;;;;;;;32.13;20.23;;;15.00;99.90;;;;;;5023030;28;20045;-82
2022/10/15 06:43:58;;;;;;;40.40;21.52;;;15.00;99.90;;;;;;5024931;28;20032;-74
2022/10/15 06:46:24;;;;;;;36.45;21.25;;;15.00;99.90;;;;;;5024621;28;20033;-75
2022/10/15 06:48:50;;;;;;;36.63;22.23;;;15.10;99.90;;;;;;5023081;28;20037;-75
2022/10/15 06:51:16;;;;;;;36.72;21.75;;;15.20;99.90;;;;;;5025645;28;20621;-77
2022/10/15 06:53:42;;;;;;;33.42;20.30;;;15.30;99.90;;;;;;5028023;28;20041;-77
2022/10/15 06:56:08;;;;;;;39.40;21.63;;;15.30;99.90;;;;;;5025492;28;22740;-75
2022/10/15 06:58:34;;;;;;;37.50;24.08;;;15.40;99.90;;;;;;5025115;28;20407;-76
2022/10/15 07:01:04;;;;;;;34.50;21.13;;;15.40;99.90;;;;;;5027249;28;20102;-76
2022/10/15 07:03:30;;;;;;;36.63;21.75;;;15.50;99.90;;;;;;5025962;28;20121;-76
2022/10/15 07:06:00;;;;;;;37.63;22.92;;;15.50;99.90;;;;;;5026858;28;20126;-74
2022/10/15 07:08:25;;;;;;;40.85;22.48;;;15.50;99.90;;;;;;5026793;28;20029;-75
2022/10/15 07:10:51;;;;;;;46.15;24.48;;;15.60;99.90;;;;;;5033804;28;20400;-76
2022/10/15 07:13:16;;;;;;;45.33;23.92;;;15.70;99.90;;;;;;5029554;28;20581;-76
2022/10/15 07:15:43;;;;;;;40.08;23.88;;;15.70;99.90;;;;;;5025634;28;20032;-75
2022/10/15 07:18:09;;;;;;;37.85;24.73;;;15.80;99.90;;;;;;5003099;28;20054;-75
2022/10/15 07:20:34;;;;;;;43.35;26.38;;;15.90;99.90;;;;;;4994212;28;20034;-76
2022/10/15 07:23:01;;;;;;;49.78;31.27;;;15.90;99.90;;;;;;4992376;28;20022;-75
2022/10/15 07:25:27;;;;;;;52.92;30.35;;;15.80;99.90;;;;;;4996734;28;20038;-75
2022/10/15 07:27:54;;;;;;;43.80;26.55;;;15.80;99.90;;;;;;4990527;28;20026;-75
2022/10/15 07:30:20;;;;;;;43.47;25.10;;;15.80;99.90;;;;;;4992620;28;20038;-75
2022/10/15 07:32:46;;;;;;;36.65;24.95;;;15.70;99.90;;;;;;4987001;28;20100;-75
2022/10/15 07:35:12;;;;;;;37.85;23.80;;;15.70;99.90;;;;;;4993766;28;20472;-75
2022/10/15 07:37:37;;;;;;;42.83;25.02;;;15.70;99.90;;;;;;4987311;28;20054;-76
2022/10/15 07:40:03;;;;;;;33.50;21.30;;;15.70;99.90;;;;;;4990591;28;20049;-76
2022/10/15 07:42:29;;;;;;;36.13;22.15;;;15.80;99.90;;;;;;4987815;28;20505;-77
2022/10/15 07:44:54;;;;;;;43.80;24.98;;;16.10;99.90;;;;;;4991691;28;20038;-76
2022/10/15 07:47:20;;;;;;;39.75;24.27;;;16.20;99.90;;;;;;5002514;28;20124;-75
2022/10/15 07:49:46;;;;;;;46.22;25.40;;;16.30;99.90;;;;;;4987447;28;20073;-75
2022/10/15 07:52:11;;;;;;;40.72;24.45;;;16.40;99.90;;;;;;4989214;28;20026;-75
2022/10/15 07:54:37;;;;;;;39.92;24.50;;;16.30;99.90;;;;;;4987513;28;20041;-76
2022/10/15 07:57:05;;;;;;;38.90;24.73;;;16.30;99.90;;;;;;4999802;28;20061;-76
2022/10/15 07:59:31;;;;;;;36.50;22.95;;;16.30;99.90;;;;;;4988020;28;20160;-75
2022/10/15 08:01:57;;;;;;;37.67;22.15;;;16.30;99.90;;;;;;4991173;28;20370;-75
2022/10/15 08:04:23;;;;;;;36.28;23.40;;;16.20;99.90;;;;;;4986085;28;20041;-75
2022/10/15 08:06:48;;;;;;;42.72;24.05;;;16.20;99.90;;;;;;4994543;28;20045;-75
2022/10/15 08:09:14;;;;;;;37.70;22.73;;;16.30;99.90;;;;;;4995572;28;20435;-76
2022/10/15 08:11:40;;;;;;;39.42;23.58;;;16.30;99.90;;;;;;4995905;28;20073;-75
2022/10/15 08:14:05;;;;;;;36.38;21.88;;;16.40;99.90;;;;;;4998898;28;20046;-76
2022/10/15 08:16:31;;;;;;;48.30;25.08;;;16.20;99.90;;;;;;4998050;28;20507;-75
2022/10/15 08:18:58;;;;;;;49.83;25.15;;;16.20;99.90;;;;;;4995002;28;20165;-75
2022/10/15 08:21:23;;;;;;;42.83;23.60;;;16.10;99.90;;;;;;4991489;28;20036;-75
2022/10/15 08:23:50;;;;;;;41.17;24.23;;;16.00;99.90;;;;;;4996267;28;20034;-75
2022/10/15 08:26:15;;;;;;;35.65;23.20;;;15.90;99.90;;;;;;4987929;28;20397;-75
2022/10/15 08:28:41;;;;;;;38.15;24.75;;;15.90;99.90;;;;;;4993263;28;20088;-75
2022/10/15 08:31:07;;;;;;;43.28;24.52;;;16.00;99.90;;;;;;4985431;28;20029;-75
2022/10/15 08:33:34;;;;;;;44.00;25.05;;;16.00;99.90;;;;;;5001839;28;20022;-75
2022/10/15 08:36:00;;;;;;;41.45;24.58;;;16.10;99.90;;;;;;4991994;28;20031;-75
2022/10/15 08:38:26;;;;;;;47.15;24.88;;;16.30;99.90;;;;;;5002320;28;20037;-75
2022/10/15 08:40:55;;;;;;;38.03;24.45;;;16.30;99.90;;;;;;4993836;28;20045;-75
2022/10/15 08:43:37;;;;;;;39.55;22.13;;;16.30;99.90;;;;;;5004216;28;20042;-75
2022/10/15 08:46:11;;;;;;;41.60;25.33;;;16.60;99.90;;;;;;4992435;28;20045;-76
2022/10/15 08:48:47;;;;;;;44.85;25.13;;;16.70;99.90;;;;;;4991759;28;20076;-76
2022/10/15 08:51:19;;;;;;;41.08;24.90;;;16.80;99.90;;;;;;4991164;28;20112;-76
2022/10/15 08:53:51;;;;;;;38.45;24.58;;;16.80;99.90;;;;;;5004836;28;20112;-76
2022/10/15 08:56:36;;;;;;;41.10;23.10;;;16.90;99.90;;;;;;4996642;28;20038;-75
2022/10/15 08:59:32;;;;;;;45.47;25.55;;;17.00;99.90;;;;;;4999927;28;20045;-75
2022/10/15 09:02:23;;;;;;;52.15;26.45;;;17.00;99.90;;;;;;4984903;28;20084;-75
2022/10/15 09:05:21;;;;;;;37.67;22.00;;;17.00;99.90;;;;;;4997504;28;20156;-76
2022/10/15 09:08:09;;;;;;;38.88;24.40;;;17.20;99.90;;;;;;4989912;28;20034;-76
2022/10/15 09:10:46;;;;;;;37.78;23.70;;;17.20;99.90;;;;;;5001869;28;20524;-75
2022/10/15 09:13:29;;;;;;;40.67;23.20;;;17.30;99.90;;;;;;4989433;28;20068;-75
2022/10/15 09:16:11;;;;;;;43.13;24.90;;;17.30;99.90;;;;;;4990623;28;20554;-75
2022/10/15 09:18:43;;;;;;;42.35;23.95;;;17.40;99.90;;;;;;4988585;28;20100;-75
2022/10/15 09:21:10;;;;;;;36.20;23.13;;;17.40;99.90;;;;;;4990208;28;20057;-76
2022/10/15 09:23:36;;;;;;;38.83;23.58;;;17.50;99.90;;;;;;4996752;28;20030;-76
2022/10/15 09:26:11;;;;;;;35.83;23.25;;;17.40;99.90;;;;;;4998950;28;20037;-76
2022/10/15 09:28:53;;;;;;;43.47;24.05;;;17.40;99.90;;;;;;5001517;28;20034;-76
2022/10/15 09:31:42;;;;;;;39.67;23.52;;;17.40;99.90;;;;;;5004868;28;20065;-76
2022/10/15 09:34:22;;;;;;;42.58;22.63;;;17.40;99.90;;;;;;4988484;28;20473;-75
2022/10/15 09:36:59;;;;;;;38.85;22.40;;;17.50;99.90;;;;;;4984653;28;20034;-75
2022/10/15 09:39:37;;;;;;;41.88;22.48;;;17.40;99.90;;;;;;4986626;28;20038;-76
2022/10/15 09:42:24;;;;;;;37.53;23.45;;;17.40;99.90;;;;;;4990561;28;20022;-76
2022/10/15 09:44:52;;;;;;;34.75;21.75;;;17.50;99.90;;;;;;4984708;28;20030;-75
2022/10/15 09:47:27;;;;;;;37.47;21.52;;;17.60;99.90;;;;;;4990146;28;20073;-75
2022/10/15 09:49:53;;;;;;;41.50;22.15;;;17.80;99.90;;;;;;4992152;28;20042;-76
2022/10/15 09:52:21;;;;;;;34.58;23.90;;;17.70;99.90;;;;;;4996541;28;20484;-76
2022/10/15 09:54:59;;;;;;;41.50;24.38;;;17.70;99.90;;;;;;5004489;28;20064;-75
2022/10/15 09:57:26;;;;;;;37.53;24.05;;;17.60;99.90;;;;;;5001506;28;20120;-76
2022/10/15 10:00:00;;;;;;;39.90;23.05;;;17.60;99.90;;;;;;5001346;28;20034;-76
2022/10/15 10:02:26;;;;;;;42.67;23.15;;;17.70;99.90;;;;;;5001869;28;20018;-75
2022/10/15 10:04:53;;;;;;;34.83;23.23;;;17.70;99.90;;;;;;4992482;28;20492;-76
2022/10/15 10:07:31;;;;;;;38.60;24.23;;;17.80;99.90;;;;;;4988587;28;20041;-76
2022/10/15 10:10:04;;;;;;;37.72;22.50;;;17.80;99.90;;;;;;4990203;28;20026;-77
2022/10/15 10:12:34;;;;;;;39.93;24.23;;;17.90;99.90;;;;;;5005246;28;20037;-76
2022/10/15 10:15:05;;;;;;;36.40;22.60;;;18.10;99.90;;;;;;5003703;28;20920;-76
2022/10/15 10:17:31;;;;;;;39.78;23.38;;;18.20;99.90;;;;;;5003821;28;20052;-76
2022/10/15 10:20:09;;;;;;;40.28;25.40;;;18.20;99.90;;;;;;4986187;28;20035;-76
2022/10/15 10:22:47;;;;;;;43.45;26.63;;;18.20;99.90;;;;;;4997887;28;20037;-76
2022/10/15 10:25:41;;;;;;;38.95;23.33;;;18.30;99.90;;;;;;4990922;28;20085;-76
2022/10/15 10:28:12;;;;;;;37.53;23.55;;;18.20;99.90;;;;;;4989606;28;20097;-76
2022/10/15 10:30:46;;;;;;;41.35;24.65;;;18.20;99.90;;;;;;4991254;28;20030;-76
2022/10/15 10:33:13;;;;;;;;;;;18.30;99.90;;;;;;4991085;28;20034;-76
2022/10/15 10:35:49;;;;;;;42.85;23.83;;;18.10;99.90;;;;;;4998704;28;19921;-75
2022/10/15 10:38:39;;;;;;;43.95;26.38;;;18.10;99.90;;;;;;4997854;28;20134;-74
2022/10/15 10:41:08;;;;;;;38.20;25.45;;;18.10;99.90;;;;;;5008263;28;20428;-74
2022/10/15 10:43:52;;;;;;;40.17;24.90;;;18.10;99.90;;;;;;4999108;28;20038;-75
2022/10/15 10:46:20;;;;;;;44.83;26.45;;;18.00;99.90;;;;;;4988779;28;20038;-73
2022/10/15 10:48:51;;;;;;;43.92;27.30;;;18.30;99.90;;;;;;5004824;28;20064;-75
2022/10/15 10:51:23;;;;;;;43.60;25.30;;;18.30;99.90;;;;;;5001260;28;20045;-74
2022/10/15 10:53:53;;;;;;;43.95;23.70;;;18.30;99.90;;;;;;4996701;28;20027;-75
2022/10/15 10:56:36;;;;;;;43.08;24.77;;;18.40;99.90;;;;;;4990958;28;20058;-74
2022/10/15 10:59:20;;;;;;;37.42;24.40;;;18.40;99.90;;;;;;4988743;28;20066;-75
2022/10/15 11:01:46;;;;;;;;;;;18.50;99.90;;;;;;4988452;28;20057;-74
2022/10/15 11:04:33;;;;;;;36.55;23.58;;;18.60;99.90;;;;;;4988627;28;20560;-73
2022/10/15 11:07:22;;;;;;;36.25;22.77;;;18.50;99.90;;;;;;4992563;28;20030;-73
2022/10/15 11:09:59;;;;;;;40.78;23.90;;;18.50;99.90;;;;;;4995619;28;20040;-72
2022/10/15 11:12:24;;;;;;;50.08;25.42;;;18.60;99.90;;;;;;4991614;28;20030;-73
2022/10/15 11:15:16;;;;;;;47.85;24.20;;;18.50;99.90;;;;;;4988272;28;20046;-73
2022/10/15 11:18:02;;;;;;;48.35;25.75;;;18.50;99.90;;;;;;4985281;28;20113;-72
2022/10/15 11:20:57;;;;;;;41.50;24.75;;;18.60;99.90;;;;;;4991150;28;20548;-73
2022/10/15 11:23:52;;;;;;;42.65;25.60;;;18.80;99.90;;;;;;4987585;28;20140;-73
2022/10/15 11:27:06;;;;;;;39.88;25.58;;;18.80;99.90;;;;;;4984856;28;20045;-73
2022/10/15 11:29:53;;;;;;;47.05;26.95;;;18.90;99.90;;;;;;4993609;28;20548;-73
2022/10/15 11:32:44;;;;;;;51.72;29.30;;;18.70;99.90;;;;;;4989871;28;20068;-73
2022/10/15 11:35:09;;;;;;;52.17;28.27;;;18.50;99.90;;;;;;4992377;28;20061;-73
2022/10/15 11:37:58;;;;;;;52.45;30.30;;;18.70;99.90;;;;;;4992560;28;20117;-73
2022/10/15 11:40:54;;;;;;;53.38;31.75;;;18.80;99.90;;;;;;4991235;28;20069;-73
2022/10/15 11:44:03;;;;;;;54.70;31.25;;;18.90;99.90;;;;;;4991511;28;20038;-73
2022/10/15 11:46:51;;;;;;;52.42;30.52;;;18.90;99.90;;;;;;4991644;28;20128;-73
2022/10/15 11:49:32;;;;;;;52.92;31.88;;;18.80;99.90;;;;;;4985173;28;20022;-73
2022/10/15 11:52:11;;;;;;;59.03;34.35;;;18.80;99.90;;;;;;4988512;28;20029;-73
2022/10/15 11:54:51;;;;;;;55.25;32.92;;;18.80;99.90;;;;;;4989231;28;20035;-74
2022/10/15 11:57:18;;;;;;;58.28;33.88;;;18.70;99.90;;;;;;4988142;28;20032;-73
2022/10/15 11:59:47;;;;;;;54.83;33.08;;;18.80;99.90;;;;;;4994792;28;20072;-73
2022/10/15 12:02:22;;;;;;;56.53;32.85;;;18.90;99.90;;;;;;4990567;28;20104;-73
2022/10/15 12:04:52;;;;;;;55.10;32.60;;;19.10;99.90;;;;;;4990033;28;20030;-73
2022/10/15 12:07:24;;;;;;;56.72;32.47;;;19.30;99.90;;;;;;4989605;28;20038;-73
2022/10/15 12:09:59;;;;;;;51.80;30.98;;;19.50;99.90;;;;;;4989698;28;20026;-74
2022/10/15 12:12:24;;;;;;;60.75;32.47;;;19.60;99.90;;;;;;4992146;28;20048;-73
2022/10/15 12:15:13;;;;;;;54.80;32.08;;;19.50;99.90;;;;;;5009994;28;20045;-74
2022/10/15 12:17:54;;;;;;;59.78;34.42;;;19.50;99.90;;;;;;5005711;28;20034;-75
2022/10/15 12:20:22;;;;;;;53.03;32.08;;;19.70;99.90;;;;;;5009444;28;20024;-74
2022/10/15 12:22:50;;;;;;;56.05;32.65;;;19.90;99.90;;;;;;4977476;28;20030;-74
2022/10/15 12:25:34;;;;;;;54.80;32.88;;;19.70;99.90;;;;;;4999839;28;20030;-74
2022/10/15 12:28:11;;;;;;;50.63;31.15;;;19.60;99.90;;;;;;5003369;28;20034;-74
2022/10/15 12:30:39;;;;;;;57.40;32.67;;;19.70;99.90;;;;;;5008765;28;20107;-74
2022/10/15 12:33:32;;;;;;;55.35;32.13;;;19.60;99.90;;;;;;5000187;28;20033;-74
2022/10/15 12:36:01;;;;;;;49.75;31.30;;;19.60;99.90;;;;;;4992041;28;20087;-74
2022/10/15 12:38:33;;;;;;;57.47;31.40;;;19.40;99.90;;;;;;4991831;28;20441;-74
2022/10/15 12:41:06;;;;;;;79.22;34.65;;;19.30;99.90;;;;;;4988333;28;20030;-74
2022/10/15 12:43:35;;;;;;;49.92;30.17;;;19.40;99.90;;;;;;4991754;28;20476;-75
2022/10/15 12:46:04;;;;;;;55.97;31.25;;;19.50;99.90;;;;;;5001854;28;20030;-74
2022/10/15 12:48:42;;;;;;;56.60;33.22;;;19.60;99.90;;;;;;4989551;28;20033;-74